sensor_id;sensor_type;location;lat;lon;timestamp;temperature;humidity
29403;DHT22;16382;59.942;30.472;2023-01-25T00:00:45;1.50;99.90
29403;DHT22;16382;59.942;30.472;2023-01-25T00:03:12;1.50;99.90
29403;DHT22;16382;59.942;30.472;2023-01-25T00:05:39;1.50;99.90
29403;DHT22;16382;59.942;30.472;2023-01-25T00:08:07;1.50;99.90
29403;DHT22;16382;59.942;30.472;2023-01-25T00:10:34;1.50;99.90
29403;DHT22;16382;59.942;30.472;2023-01-25T00:13:03;1.50;99.90
29403;DHT22;16382;59.942;30.472;2023-01-25T00:15:30;1.60;99.90
29403;DHT22;16382;59.942;30.472;2023-01-25T00:17:58;1.60;99.90
29403;DHT22;16382;59.942;30.472;2023-01-25T00:20:26;1.60;99.90
29403;DHT22;16382;59.942;30.472;2023-01-25T00:22:53;1.50;99.90
29403;DHT22;16382;59.942;30.472;2023-01-25T00:25:20;1.50;99.90
29403;DHT22;16382;59.942;30.472;2023-01-25T00:27:48;1.50;99.90
29403;DHT22;16382;59.942;30.472;2023-01-25T00:30:17;1.60;99.90
29403;DHT22;16382;59.942;30.472;2023-01-25T00:32:48;1.70;99.90
29403;DHT22;16382;59.942;30.472;2023-01-25T00:35:20;1.70;99.90
29403;DHT22;16382;59.942;30.472;2023-01-25T00:37:48;1.70;99.90
29403;DHT22;16382;59.942;30.472;2023-01-25T00:40:18;1.70;99.90
29403;DHT22;16382;59.942;30.472;2023-01-25T00:42:46;1.70;99.90
29403;DHT22;16382;59.942;30.472;2023-01-25T00:45:13;1.70;99.90
29403;DHT22;16382;59.942;30.472;2023-01-25T00:47:42;1.70;99.90
29403;DHT22;16382;59.942;30.472;2023-01-25T00:50:10;1.60;99.90
29403;DHT22;16382;59.942;30.472;2023-01-25T00:52:39;1.60;99.90
29403;DHT22;16382;59.942;30.472;2023-01-25T00:55:07;1.50;99.90
29403;DHT22;16382;59.942;30.472;2023-01-25T00:57:35;1.50;99.90
29403;DHT22;16382;59.942;30.472;2023-01-25T01:00:03;1.50;99.90
29403;DHT22;16382;59.942;30.472;2023-01-25T01:02:32;1.50;99.90
29403;DHT22;16382;59.942;30.472;2023-01-25T01:05:01;1.50;99.90
29403;DHT22;16382;59.942;30.472;2023-01-25T01:07:30;1.50;99.90
29403;DHT22;16382;59.942;30.472;2023-01-25T01:09:58;1.50;99.90
29403;DHT22;16382;59.942;30.472;2023-01-25T01:12:26;1.50;99.90
29403;DHT22;16382;59.942;30.472;2023-01-25T01:14:53;1.50;99.90
29403;DHT22;16382;59.942;30.472;2023-01-25T01:17:21;1.50;99.90
29403;DHT22;16382;59.942;30.472;2023-01-25T01:19:48;1.50;99.90
29403;DHT22;16382;59.942;30.472;2023-01-25T01:22:17;1.50;99.90
29403;DHT22;16382;59.942;30.472;2023-01-25T01:24:47;1.50;99.90
29403;DHT22;16382;59.942;30.472;2023-01-25T01:27:15;1.50;99.90
29403;DHT22;16382;59.942;30.472;2023-01-25T01:29:42;1.50;99.90
29403;DHT22;16382;59.942;30.472;2023-01-25T01:32:10;1.50;99.90
29403;DHT22;16382;59.942;30.472;2023-01-25T01:34:37;1.50;99.90
29403;DHT22;16382;59.942;30.472;2023-01-25T01:37:05;1.50;99.90
29403;DHT22;16382;59.942;30.472;2023-01-25T01:39:34;1.50;99.90
29403;DHT22;16382;59.942;30.472;2023-01-25T01:42:02;1.50;99.90
29403;DHT22;16382;59.942;30.472;2023-01-25T01:44:43;1.40;99.90
29403;DHT22;16382;59.942;30.472;2023-01-25T01:47:16;1.40;99.90
29403;DHT22;16382;59.942;30.472;2023-01-25T01:49:52;1.40;99.90
29403;DHT22;16382;59.942;30.472;2023-01-25T01:52:24;1.50;99.90
29403;DHT22;16382;59.942;30.472;2023-01-25T01:54:59;1.50;99.90
29403;DHT22;16382;59.942;30.472;2023-01-25T01:57:33;1.50;99.90
29403;DHT22;16382;59.942;30.472;2023-01-25T02:00:05;1.50;99.90
29403;DHT22;16382;59.942;30.472;2023-01-25T02:02:39;1.50;99.90
29403;DHT22;16382;59.942;30.472;2023-01-25T02:05:11;1.50;99.90
29403;DHT22;16382;59.942;30.472;2023-01-25T02:07:44;1.50;99.90
29403;DHT22;16382;59.942;30.472;2023-01-25T02:10:15;1.40;99.90
29403;DHT22;16382;59.942;30.472;2023-01-25T02:12:44;1.40;99.90
29403;DHT22;16382;59.942;30.472;2023-01-25T02:15:12;1.30;99.90
29403;DHT22;16382;59.942;30.472;2023-01-25T02:17:40;1.30;99.90
29403;DHT22;16382;59.942;30.472;2023-01-25T02:20:16;1.30;99.90
29403;DHT22;16382;59.942;30.472;2023-01-25T02:22:55;1.30;99.90
29403;DHT22;16382;59.942;30.472;2023-01-25T02:25:27;1.30;99.90
29403;DHT22;16382;59.942;30.472;2023-01-25T02:27:59;1.30;99.90
29403;DHT22;16382;59.942;30.472;2023-01-25T02:30:33;1.30;99.90
29403;DHT22;16382;59.942;30.472;2023-01-25T02:33:00;1.30;99.90
29403;DHT22;16382;59.942;30.472;2023-01-25T02:35:38;1.30;99.90
29403;DHT22;16382;59.942;30.472;2023-01-25T02:38:08;1.30;99.90
29403;DHT22;16382;59.942;30.472;2023-01-25T02:40:43;1.30;99.90
29403;DHT22;16382;59.942;30.472;2023-01-25T02:43:13;1.30;99.90
29403;DHT22;16382;59.942;30.472;2023-01-25T02:45:43;1.30;99.90
29403;DHT22;16382;59.942;30.472;2023-01-25T02:48:14;1.30;99.90
29403;DHT22;16382;59.942;30.472;2023-01-25T02:50:41;1.30;99.90
29403;DHT22;16382;59.942;30.472;2023-01-25T02:53:11;1.30;99.90
29403;DHT22;16382;59.942;30.472;2023-01-25T02:55:39;1.30;99.90
29403;DHT22;16382;59.942;30.472;2023-01-25T02:58:07;1.30;99.90
29403;DHT22;16382;59.942;30.472;2023-01-25T03:00:35;1.30;99.90
29403;DHT22;16382;59.942;30.472;2023-01-25T03:03:03;1.30;99.90
29403;DHT22;16382;59.942;30.472;2023-01-25T03:05:30;1.30;99.90
29403;DHT22;16382;59.942;30.472;2023-01-25T03:07:58;1.30;99.90
29403;DHT22;16382;59.942;30.472;2023-01-25T03:10:29;1.30;99.90
29403;DHT22;16382;59.942;30.472;2023-01-25T03:12:58;1.30;99.90
29403;DHT22;16382;59.942;30.472;2023-01-25T03:15:26;1.30;99.90
29403;DHT22;16382;59.942;30.472;2023-01-25T03:17:54;1.30;99.90
29403;DHT22;16382;59.942;30.472;2023-01-25T03:20:22;1.30;99.90
29403;DHT22;16382;59.942;30.472;2023-01-25T03:22:50;1.40;99.90
29403;DHT22;16382;59.942;30.472;2023-01-25T03:25:17;1.40;99.90
29403;DHT22;16382;59.942;30.472;2023-01-25T03:27:54;1.40;99.90
29403;DHT22;16382;59.942;30.472;2023-01-25T03:30:23;1.40;99.90
29403;DHT22;16382;59.942;30.472;2023-01-25T03:32:51;1.50;99.90
29403;DHT22;16382;59.942;30.472;2023-01-25T03:35:19;1.50;99.90
29403;DHT22;16382;59.942;30.472;2023-01-25T03:37:47;1.60;99.90
29403;DHT22;16382;59.942;30.472;2023-01-25T03:40:15;1.50;99.90
29403;DHT22;16382;59.942;30.472;2023-01-25T03:42:47;1.50;99.90
29403;DHT22;16382;59.942;30.472;2023-01-25T03:45:15;1.50;99.90
29403;DHT22;16382;59.942;30.472;2023-01-25T03:47:44;1.50;99.90
29403;DHT22;16382;59.942;30.472;2023-01-25T03:50:13;1.50;99.90
29403;DHT22;16382;59.942;30.472;2023-01-25T03:52:47;1.40;99.90
29403;DHT22;16382;59.942;30.472;2023-01-25T03:55:48;1.40;99.90
29403;DHT22;16382;59.942;30.472;2023-01-25T03:58:15;1.30;99.90
29403;DHT22;16382;59.942;30.472;2023-01-25T04:00:43;1.30;99.90
29403;DHT22;16382;59.942;30.472;2023-01-25T04:03:14;1.30;99.90
29403;DHT22;16382;59.942;30.472;2023-01-25T04:05:42;1.20;99.90
29403;DHT22;16382;59.942;30.472;2023-01-25T04:08:10;1.20;99.90
29403;DHT22;16382;59.942;30.472;2023-01-25T04:10:39;1.20;99.90
29403;DHT22;16382;59.942;30.472;2023-01-25T04:13:08;1.10;99.90
29403;DHT22;16382;59.942;30.472;2023-01-25T04:15:36;1.10;99.90
29403;DHT22;16382;59.942;30.472;2023-01-25T04:18:14;1.10;99.90
29403;DHT22;16382;59.942;30.472;2023-01-25T04:20:45;1.10;99.90
29403;DHT22;16382;59.942;30.472;2023-01-25T04:23:13;1.00;99.90
29403;DHT22;16382;59.942;30.472;2023-01-25T04:25:50;1.00;99.90
29403;DHT22;16382;59.942;30.472;2023-01-25T04:28:19;0.90;99.90
29403;DHT22;16382;59.942;30.472;2023-01-25T04:30:46;0.90;99.90
29403;DHT22;16382;59.942;30.472;2023-01-25T04:33:17;0.80;99.90
29403;DHT22;16382;59.942;30.472;2023-01-25T04:35:45;0.80;99.90
29403;DHT22;16382;59.942;30.472;2023-01-25T04:38:15;0.80;99.90
29403;DHT22;16382;59.942;30.472;2023-01-25T04:40:44;0.90;99.90
29403;DHT22;16382;59.942;30.472;2023-01-25T04:43:13;0.90;99.90
29403;DHT22;16382;59.942;30.472;2023-01-25T04:45:43;0.90;99.90
29403;DHT22;16382;59.942;30.472;2023-01-25T04:48:21;0.90;99.90
29403;DHT22;16382;59.942;30.472;2023-01-25T04:50:54;1.00;99.90
29403;DHT22;16382;59.942;30.472;2023-01-25T04:53:23;1.00;99.90
29403;DHT22;16382;59.942;30.472;2023-01-25T04:55:54;1.00;99.90
29403;DHT22;16382;59.942;30.472;2023-01-25T04:58:24;1.10;99.90
29403;DHT22;16382;59.942;30.472;2023-01-25T05:00:52;1.10;99.90
29403;DHT22;16382;59.942;30.472;2023-01-25T05:03:27;1.10;99.90
29403;DHT22;16382;59.942;30.472;2023-01-25T05:05:55;1.10;99.90
29403;DHT22;16382;59.942;30.472;2023-01-25T05:08:24;1.20;99.90
29403;DHT22;16382;59.942;30.472;2023-01-25T05:10:56;1.10;99.90
29403;DHT22;16382;59.942;30.472;2023-01-25T05:13:31;1.10;99.90
29403;DHT22;16382;59.942;30.472;2023-01-25T05:16:10;1.20;99.90
29403;DHT22;16382;59.942;30.472;2023-01-25T05:18:39;1.20;99.90
29403;DHT22;16382;59.942;30.472;2023-01-25T05:21:07;1.20;99.90
29403;DHT22;16382;59.942;30.472;2023-01-25T05:23:55;1.10;99.90
29403;DHT22;16382;59.942;30.472;2023-01-25T05:26:22;1.10;99.90
29403;DHT22;16382;59.942;30.472;2023-01-25T05:29:08;1.10;99.90
29403;DHT22;16382;59.942;30.472;2023-01-25T05:32:06;1.20;99.90
29403;DHT22;16382;59.942;30.472;2023-01-25T05:34:37;1.10;99.90
29403;DHT22;16382;59.942;30.472;2023-01-25T05:37:07;1.20;99.90
29403;DHT22;16382;59.942;30.472;2023-01-25T05:39:40;1.20;99.90
29403;DHT22;16382;59.942;30.472;2023-01-25T05:42:10;1.20;99.90
29403;DHT22;16382;59.942;30.472;2023-01-25T05:44:39;1.30;99.90
29403;DHT22;16382;59.942;30.472;2023-01-25T05:47:11;1.30;99.90
29403;DHT22;16382;59.942;30.472;2023-01-25T05:49:41;1.20;99.90
29403;DHT22;16382;59.942;30.472;2023-01-25T05:52:13;1.30;99.90
29403;DHT22;16382;59.942;30.472;2023-01-25T05:54:44;1.30;99.90
29403;DHT22;16382;59.942;30.472;2023-01-25T05:57:14;1.30;99.90
29403;DHT22;16382;59.942;30.472;2023-01-25T05:59:43;1.30;99.90
29403;DHT22;16382;59.942;30.472;2023-01-25T06:02:15;1.30;99.90
29403;DHT22;16382;59.942;30.472;2023-01-25T06:04:45;1.30;99.90
29403;DHT22;16382;59.942;30.472;2023-01-25T06:07:13;1.40;99.90
29403;DHT22;16382;59.942;30.472;2023-01-25T06:09:41;1.30;99.90
29403;DHT22;16382;59.942;30.472;2023-01-25T06:12:09;1.30;99.90
29403;DHT22;16382;59.942;30.472;2023-01-25T06:14:36;1.40;99.90
29403;DHT22;16382;59.942;30.472;2023-01-25T06:17:04;1.40;99.90
29403;DHT22;16382;59.942;30.472;2023-01-25T06:19:59;1.40;99.90
29403;DHT22;16382;59.942;30.472;2023-01-25T06:22:37;1.40;99.90
29403;DHT22;16382;59.942;30.472;2023-01-25T06:25:05;1.40;99.90
29403;DHT22;16382;59.942;30.472;2023-01-25T06:27:34;1.40;99.90
29403;DHT22;16382;59.942;30.472;2023-01-25T06:30:01;1.30;99.90
29403;DHT22;16382;59.942;30.472;2023-01-25T06:32:31;1.40;99.90
29403;DHT22;16382;59.942;30.472;2023-01-25T06:35:01;1.40;99.90
29403;DHT22;16382;59.942;30.472;2023-01-25T06:37:29;1.40;99.90
29403;DHT22;16382;59.942;30.472;2023-01-25T06:39:56;1.40;99.90
29403;DHT22;16382;59.942;30.472;2023-01-25T06:42:24;1.40;99.90
29403;DHT22;16382;59.942;30.472;2023-01-25T06:44:51;1.40;99.90
29403;DHT22;16382;59.942;30.472;2023-01-25T06:47:19;1.40;99.90
29403;DHT22;16382;59.942;30.472;2023-01-25T06:49:46;1.40;99.90
29403;DHT22;16382;59.942;30.472;2023-01-25T06:52:15;1.40;99.90
29403;DHT22;16382;59.942;30.472;2023-01-25T06:54:43;1.40;99.90
29403;DHT22;16382;59.942;30.472;2023-01-25T06:57:11;1.40;99.90
29403;DHT22;16382;59.942;30.472;2023-01-25T06:59:38;1.40;99.90
29403;DHT22;16382;59.942;30.472;2023-01-25T07:02:06;1.40;99.90
29403;DHT22;16382;59.942;30.472;2023-01-25T07:04:34;1.50;99.90
29403;DHT22;16382;59.942;30.472;2023-01-25T07:07:01;1.50;99.90
29403;DHT22;16382;59.942;30.472;2023-01-25T07:09:30;1.40;99.90
29403;DHT22;16382;59.942;30.472;2023-01-25T07:11:58;1.40;99.90
29403;DHT22;16382;59.942;30.472;2023-01-25T07:14:26;1.40;99.90
29403;DHT22;16382;59.942;30.472;2023-01-25T07:16:54;1.40;99.90
29403;DHT22;16382;59.942;30.472;2023-01-25T07:19:21;1.40;99.90
29403;DHT22;16382;59.942;30.472;2023-01-25T07:21:49;1.50;99.90
29403;DHT22;16382;59.942;30.472;2023-01-25T07:24:18;1.60;99.90
29403;DHT22;16382;59.942;30.472;2023-01-25T07:26:47;1.60;99.90
29403;DHT22;16382;59.942;30.472;2023-01-25T07:29:17;1.60;99.90
29403;DHT22;16382;59.942;30.472;2023-01-25T07:31:45;1.70;99.90
29403;DHT22;16382;59.942;30.472;2023-01-25T07:34:12;1.70;99.90
29403;DHT22;16382;59.942;30.472;2023-01-25T07:36:40;1.70;99.90
29403;DHT22;16382;59.942;30.472;2023-01-25T07:39:10;1.70;99.90
29403;DHT22;16382;59.942;30.472;2023-01-25T07:41:37;1.80;99.90
29403;DHT22;16382;59.942;30.472;2023-01-25T07:44:12;1.80;99.90
29403;DHT22;16382;59.942;30.472;2023-01-25T07:46:44;1.70;99.90
29403;DHT22;16382;59.942;30.472;2023-01-25T07:49:12;1.80;99.90
29403;DHT22;16382;59.942;30.472;2023-01-25T07:51:39;1.80;99.90
29403;DHT22;16382;59.942;30.472;2023-01-25T07:54:09;1.80;99.90
29403;DHT22;16382;59.942;30.472;2023-01-25T07:56:38;1.80;99.90
29403;DHT22;16382;59.942;30.472;2023-01-25T07:59:06;1.80;99.90
29403;DHT22;16382;59.942;30.472;2023-01-25T08:01:35;1.80;99.90
29403;DHT22;16382;59.942;30.472;2023-01-25T08:04:04;1.70;99.90
29403;DHT22;16382;59.942;30.472;2023-01-25T08:06:33;1.80;99.90
29403;DHT22;16382;59.942;30.472;2023-01-25T08:09:06;1.80;99.90
29403;DHT22;16382;59.942;30.472;2023-01-25T08:11:34;1.80;99.90
29403;DHT22;16382;59.942;30.472;2023-01-25T08:14:02;1.90;99.90
29403;DHT22;16382;59.942;30.472;2023-01-25T08:16:30;1.90;99.90
29403;DHT22;16382;59.942;30.472;2023-01-25T08:19:00;1.90;99.90
29403;DHT22;16382;59.942;30.472;2023-01-25T08:21:31;1.90;99.90
29403;DHT22;16382;59.942;30.472;2023-01-25T08:24:00;1.90;99.90
29403;DHT22;16382;59.942;30.472;2023-01-25T08:26:28;2.00;99.90
29403;DHT22;16382;59.942;30.472;2023-01-25T08:28:56;2.00;99.90
29403;DHT22;16382;59.942;30.472;2023-01-25T08:31:25;2.00;99.90
29403;DHT22;16382;59.942;30.472;2023-01-25T08:33:54;2.10;99.90
29403;DHT22;16382;59.942;30.472;2023-01-25T08:36:23;2.10;99.90
29403;DHT22;16382;59.942;30.472;2023-01-25T08:38:54;2.00;99.90
29403;DHT22;16382;59.942;30.472;2023-01-25T08:41:23;2.10;99.90
29403;DHT22;16382;59.942;30.472;2023-01-25T08:43:52;2.00;99.90
29403;DHT22;16382;59.942;30.472;2023-01-25T08:46:21;2.00;99.90
29403;DHT22;16382;59.942;30.472;2023-01-25T08:48:52;2.10;99.90
29403;DHT22;16382;59.942;30.472;2023-01-25T08:51:21;2.00;99.90
29403;DHT22;16382;59.942;30.472;2023-01-25T08:53:50;2.00;99.90
29403;DHT22;16382;59.942;30.472;2023-01-25T08:56:17;2.10;99.90
29403;DHT22;16382;59.942;30.472;2023-01-25T08:58:47;2.10;99.90
29403;DHT22;16382;59.942;30.472;2023-01-25T09:01:17;2.10;99.90
29403;DHT22;16382;59.942;30.472;2023-01-25T09:03:47;2.20;99.90
29403;DHT22;16382;59.942;30.472;2023-01-25T09:06:16;2.20;99.90
29403;DHT22;16382;59.942;30.472;2023-01-25T09:08:46;2.20;99.90
29403;DHT22;16382;59.942;30.472;2023-01-25T09:11:15;2.10;99.90
29403;DHT22;16382;59.942;30.472;2023-01-25T09:13:44;2.10;99.90
29403;DHT22;16382;59.942;30.472;2023-01-25T09:16:15;2.10;99.90
29403;DHT22;16382;59.942;30.472;2023-01-25T09:18:53;2.10;99.90
29403;DHT22;16382;59.942;30.472;2023-01-25T09:21:21;2.10;99.90
29403;DHT22;16382;59.942;30.472;2023-01-25T09:23:52;2.10;99.90
29403;DHT22;16382;59.942;30.472;2023-01-25T09:26:20;2.00;99.90
29403;DHT22;16382;59.942;30.472;2023-01-25T09:28:49;2.10;99.90
29403;DHT22;16382;59.942;30.472;2023-01-25T09:31:24;2.10;99.90
29403;DHT22;16382;59.942;30.472;2023-01-25T09:34:21;2.10;99.90
29403;DHT22;16382;59.942;30.472;2023-01-25T09:36:49;2.10;99.90
29403;DHT22;16382;59.942;30.472;2023-01-25T09:39:18;2.10;99.90
29403;DHT22;16382;59.942;30.472;2023-01-25T09:45:19;2.10;99.90
29403;DHT22;16382;59.942;30.472;2023-01-25T09:47:57;2.10;99.90
29403;DHT22;16382;59.942;30.472;2023-01-25T09:50:35;2.10;99.90
29403;DHT22;16382;59.942;30.472;2023-01-25T09:53:24;2.10;99.90
29403;DHT22;16382;59.942;30.472;2023-01-25T09:56:02;2.20;99.90
29403;DHT22;16382;59.942;30.472;2023-01-25T09:58:37;2.10;99.90
29403;DHT22;16382;59.942;30.472;2023-01-25T10:01:23;2.10;99.90
29403;DHT22;16382;59.942;30.472;2023-01-25T10:03:54;2.10;99.90
29403;DHT22;16382;59.942;30.472;2023-01-25T10:06:40;2.10;99.90
29403;DHT22;16382;59.942;30.472;2023-01-25T10:09:20;2.10;99.90
29403;DHT22;16382;59.942;30.472;2023-01-25T10:11:58;2.00;99.90
29403;DHT22;16382;59.942;30.472;2023-01-25T10:14:28;2.10;99.90
29403;DHT22;16382;59.942;30.472;2023-01-25T10:17:09;2.10;99.90
29403;DHT22;16382;59.942;30.472;2023-01-25T10:19:53;2.10;99.90
29403;DHT22;16382;59.942;30.472;2023-01-25T10:22:35;2.10;99.90
29403;DHT22;16382;59.942;30.472;2023-01-25T10:25:23;2.00;99.90
29403;DHT22;16382;59.942;30.472;2023-01-25T10:28:07;2.10;99.90
29403;DHT22;16382;59.942;30.472;2023-01-25T10:30:54;2.00;99.90
29403;DHT22;16382;59.942;30.472;2023-01-25T10:33:25;2.00;99.90
29403;DHT22;16382;59.942;30.472;2023-01-25T10:35:55;2.00;99.90
29403;DHT22;16382;59.942;30.472;2023-01-25T10:38:28;2.10;99.90
29403;DHT22;16382;59.942;30.472;2023-01-25T10:41:01;2.00;99.90
29403;DHT22;16382;59.942;30.472;2023-01-25T10:43:32;2.10;99.90
29403;DHT22;16382;59.942;30.472;2023-01-25T10:46:00;2.20;99.90
29403;DHT22;16382;59.942;30.472;2023-01-25T10:48:32;2.10;99.90
29403;DHT22;16382;59.942;30.472;2023-01-25T10:51:01;2.20;99.90
29403;DHT22;16382;59.942;30.472;2023-01-25T10:53:31;2.20;99.90
29403;DHT22;16382;59.942;30.472;2023-01-25T10:56:14;2.20;99.90
29403;DHT22;16382;59.942;30.472;2023-01-25T10:58:50;2.20;99.90
29403;DHT22;16382;59.942;30.472;2023-01-25T11:01:24;2.30;99.90
29403;DHT22;16382;59.942;30.472;2023-01-25T11:03:52;2.30;99.90
29403;DHT22;16382;59.942;30.472;2023-01-25T11:06:30;2.30;99.90
29403;DHT22;16382;59.942;30.472;2023-01-25T11:09:01;2.30;99.90
29403;DHT22;16382;59.942;30.472;2023-01-25T11:11:59;2.30;99.90
29403;DHT22;16382;59.942;30.472;2023-01-25T11:14:30;2.20;99.90
29403;DHT22;16382;59.942;30.472;2023-01-25T11:16:59;2.30;99.90
29403;DHT22;16382;59.942;30.472;2023-01-25T11:19:32;2.30;99.90
29403;DHT22;16382;59.942;30.472;2023-01-25T11:22:02;2.40;99.90
29403;DHT22;16382;59.942;30.472;2023-01-25T11:24:32;2.40;99.90
29403;DHT22;16382;59.942;30.472;2023-01-25T11:27:16;2.40;99.90
29403;DHT22;16382;59.942;30.472;2023-01-25T11:30:06;2.50;99.90
29403;DHT22;16382;59.942;30.472;2023-01-25T11:32:37;2.50;99.90
29403;DHT22;16382;59.942;30.472;2023-01-25T11:35:11;2.50;99.90
29403;DHT22;16382;59.942;30.472;2023-01-25T11:37:54;2.50;99.90
29403;DHT22;16382;59.942;30.472;2023-01-25T11:40:37;2.50;99.90
29403;DHT22;16382;59.942;30.472;2023-01-25T11:43:16;2.60;99.90
29403;DHT22;16382;59.942;30.472;2023-01-25T11:46:12;2.60;99.90
29403;DHT22;16382;59.942;30.472;2023-01-25T11:49:11;2.60;99.90
29403;DHT22;16382;59.942;30.472;2023-01-25T11:51:51;2.60;99.90
29403;DHT22;16382;59.942;30.472;2023-01-25T11:54:48;2.60;99.90
29403;DHT22;16382;59.942;30.472;2023-01-25T11:57:34;2.70;99.90
29403;DHT22;16382;59.942;30.472;2023-01-25T12:00:25;2.70;99.90
29403;DHT22;16382;59.942;30.472;2023-01-25T12:06:53;2.60;99.90
29403;DHT22;16382;59.942;30.472;2023-01-25T12:09:36;2.70;99.90
29403;DHT22;16382;59.942;30.472;2023-01-25T12:12:23;2.70;99.90
29403;DHT22;16382;59.942;30.472;2023-01-25T12:15:16;2.80;99.90
29403;DHT22;16382;59.942;30.472;2023-01-25T12:18:29;2.80;99.90
29403;DHT22;16382;59.942;30.472;2023-01-25T12:21:19;2.80;99.90
29403;DHT22;16382;59.942;30.472;2023-01-25T12:24:03;2.80;99.90
29403;DHT22;16382;59.942;30.472;2023-01-25T12:26:47;2.80;99.90
29403;DHT22;16382;59.942;30.472;2023-01-25T12:29:23;2.80;99.90
29403;DHT22;16382;59.942;30.472;2023-01-25T12:31:57;2.80;99.90
29403;DHT22;16382;59.942;30.472;2023-01-25T12:34:32;2.80;99.90
29403;DHT22;16382;59.942;30.472;2023-01-25T12:37:08;2.80;99.90
29403;DHT22;16382;59.942;30.472;2023-01-25T12:39:43;2.80;99.90
29403;DHT22;16382;59.942;30.472;2023-01-25T12:42:17;2.80;99.90
29403;DHT22;16382;59.942;30.472;2023-01-25T12:44:49;2.80;99.90
29403;DHT22;16382;59.942;30.472;2023-01-25T12:47:26;2.70;99.90
29403;DHT22;16382;59.942;30.472;2023-01-25T12:50:02;2.70;99.90
29403;DHT22;16382;59.942;30.472;2023-01-25T12:52:35;2.70;99.90
29403;DHT22;16382;59.942;30.472;2023-01-25T12:55:13;2.70;99.90
29403;DHT22;16382;59.942;30.472;2023-01-25T12:57:50;2.70;99.90
29403;DHT22;16382;59.942;30.472;2023-01-25T13:00:25;2.70;99.90
29403;DHT22;16382;59.942;30.472;2023-01-25T13:03:06;2.70;99.90
29403;DHT22;16382;59.942;30.472;2023-01-25T13:05:44;2.70;99.90
29403;DHT22;16382;59.942;30.472;2023-01-25T13:08:21;2.70;99.90
29403;DHT22;16382;59.942;30.472;2023-01-25T13:11:04;2.70;99.90
29403;DHT22;16382;59.942;30.472;2023-01-25T13:13:34;2.70;99.90
29403;DHT22;16382;59.942;30.472;2023-01-25T13:16:24;2.70;99.90
29403;DHT22;16382;59.942;30.472;2023-01-25T13:18:59;2.60;99.90
29403;DHT22;16382;59.942;30.472;2023-01-25T13:21:45;2.60;99.90
29403;DHT22;16382;59.942;30.472;2023-01-25T13:24:16;2.70;99.90
29403;DHT22;16382;59.942;30.472;2023-01-25T13:26:59;2.70;99.90
29403;DHT22;16382;59.942;30.472;2023-01-25T13:29:54;2.70;99.90
29403;DHT22;16382;59.942;30.472;2023-01-25T13:35:39;2.70;99.90
29403;DHT22;16382;59.942;30.472;2023-01-25T13:38:33;2.70;99.90
29403;DHT22;16382;59.942;30.472;2023-01-25T13:41:13;2.70;99.90
29403;DHT22;16382;59.942;30.472;2023-01-25T13:43:53;2.80;99.90
29403;DHT22;16382;59.942;30.472;2023-01-25T13:46:35;2.80;99.90
29403;DHT22;16382;59.942;30.472;2023-01-25T13:49:16;2.80;99.90
29403;DHT22;16382;59.942;30.472;2023-01-25T13:51:47;2.80;99.90
29403;DHT22;16382;59.942;30.472;2023-01-25T13:54:16;2.80;99.90
29403;DHT22;16382;59.942;30.472;2023-01-25T13:56:44;2.80;99.90
29403;DHT22;16382;59.942;30.472;2023-01-25T13:59:24;2.80;99.90
29403;DHT22;16382;59.942;30.472;2023-01-25T14:01:53;2.80;99.90
29403;DHT22;16382;59.942;30.472;2023-01-25T14:04:22;2.80;99.90
29403;DHT22;16382;59.942;30.472;2023-01-25T14:06:55;2.80;99.90
29403;DHT22;16382;59.942;30.472;2023-01-25T14:09:26;2.80;99.90
29403;DHT22;16382;59.942;30.472;2023-01-25T14:11:57;2.80;99.90
29403;DHT22;16382;59.942;30.472;2023-01-25T14:14:28;2.70;99.90
29403;DHT22;16382;59.942;30.472;2023-01-25T14:17:14;2.70;99.90
29403;DHT22;16382;59.942;30.472;2023-01-25T14:19:43;2.80;99.90
29403;DHT22;16382;59.942;30.472;2023-01-25T14:22:24;2.80;99.90
29403;DHT22;16382;59.942;30.472;2023-01-25T14:25:08;2.80;99.90
29403;DHT22;16382;59.942;30.472;2023-01-25T14:27:43;2.80;99.90
29403;DHT22;16382;59.942;30.472;2023-01-25T14:30:17;2.80;99.90
29403;DHT22;16382;59.942;30.472;2023-01-25T14:32:46;2.80;99.90
29403;DHT22;16382;59.942;30.472;2023-01-25T14:35:38;2.80;99.90
29403;DHT22;16382;59.942;30.472;2023-01-25T14:38:32;2.80;99.90
29403;DHT22;16382;59.942;30.472;2023-01-25T14:41:10;2.80;99.90
29403;DHT22;16382;59.942;30.472;2023-01-25T14:43:40;2.80;99.90
29403;DHT22;16382;59.942;30.472;2023-01-25T14:46:25;2.80;99.90
29403;DHT22;16382;59.942;30.472;2023-01-25T14:49:08;2.80;99.90
29403;DHT22;16382;59.942;30.472;2023-01-25T14:51:54;2.80;99.90
29403;DHT22;16382;59.942;30.472;2023-01-25T14:54:26;2.80;99.90
29403;DHT22;16382;59.942;30.472;2023-01-25T14:56:57;2.80;99.90
29403;DHT22;16382;59.942;30.472;2023-01-25T14:59:30;2.80;99.90
29403;DHT22;16382;59.942;30.472;2023-01-25T15:02:03;2.80;99.90
29403;DHT22;16382;59.942;30.472;2023-01-25T15:04:37;2.80;99.90
29403;DHT22;16382;59.942;30.472;2023-01-25T15:07:35;2.80;99.90
29403;DHT22;16382;59.942;30.472;2023-01-25T15:10:20;2.80;99.90
29403;DHT22;16382;59.942;30.472;2023-01-25T15:12:58;2.90;99.90
29403;DHT22;16382;59.942;30.472;2023-01-25T15:15:29;2.90;99.90
29403;DHT22;16382;59.942;30.472;2023-01-25T15:17:59;2.90;99.90
29403;DHT22;16382;59.942;30.472;2023-01-25T15:20:33;3.00;99.90
29403;DHT22;16382;59.942;30.472;2023-01-25T15:23:19;3.00;99.90
29403;DHT22;16382;59.942;30.472;2023-01-25T15:25:50;3.00;99.90
29403;DHT22;16382;59.942;30.472;2023-01-25T15:28:20;3.00;99.90
29403;DHT22;16382;59.942;30.472;2023-01-25T15:30:50;3.00;99.90
29403;DHT22;16382;59.942;30.472;2023-01-25T15:33:20;3.00;99.90
29403;DHT22;16382;59.942;30.472;2023-01-25T15:35:49;3.10;99.90
29403;DHT22;16382;59.942;30.472;2023-01-25T15:38:18;3.10;99.90
29403;DHT22;16382;59.942;30.472;2023-01-25T15:40:46;3.10;99.90
29403;DHT22;16382;59.942;30.472;2023-01-25T15:43:19;3.10;99.90
29403;DHT22;16382;59.942;30.472;2023-01-25T15:45:49;3.10;99.90
29403;DHT22;16382;59.942;30.472;2023-01-25T15:48:18;3.10;99.90
29403;DHT22;16382;59.942;30.472;2023-01-25T15:50:51;3.10;99.90
29403;DHT22;16382;59.942;30.472;2023-01-25T15:53:20;3.10;99.90
29403;DHT22;16382;59.942;30.472;2023-01-25T15:55:51;3.10;99.90
29403;DHT22;16382;59.942;30.472;2023-01-25T15:58:24;3.10;99.90
29403;DHT22;16382;59.942;30.472;2023-01-25T16:00:53;3.10;99.90
29403;DHT22;16382;59.942;30.472;2023-01-25T16:03:21;3.10;99.90
29403;DHT22;16382;59.942;30.472;2023-01-25T16:05:50;3.20;99.90
29403;DHT22;16382;59.942;30.472;2023-01-25T16:08:20;3.10;99.90
29403;DHT22;16382;59.942;30.472;2023-01-25T16:10:48;3.10;99.90
29403;DHT22;16382;59.942;30.472;2023-01-25T16:13:16;3.10;99.90
29403;DHT22;16382;59.942;30.472;2023-01-25T16:15:48;3.10;99.90